1863 Hurricane NOT_NAMED (1863228N26299)


IBTrACS version v04r00. Visit IBTrACS website for data access.
Please direct all questions to the IBTrACS Q and A forum

Storm track - Intensity - Wind Radii - Intensity Data - Source Data - All data

Summary Information

Storm ID 1863228N26299
Start Aug 15 12Z
Max Intensity 85 kt (Aug 20 18Z), 975 mb (Aug 22 18Z)
End Aug 24 06Z
ATCF IDs
Track status Best track data.

Storm track plot

Map of storm track

Intensity plots

Map of storm track

Radial wind information

No radial wind information for this storm


Position and Intensity Table

BASIN ISO_TIME_________ NATURE LAT LON MLC WIND MLC PRES
degrees north degrees east kts mb
NA 1863-08-15 12:00:00 TS 25.50 -61.50 30
NA 15:00:00 TS 25.66 -61.91 30
NA 18:00:00 TS 25.80 -62.30 30
NA 21:00:00 TS 25.91 -62.65 30
NA 1863-08-16 00:00:00 TS 26.00 -63.00 30
NA 03:00:00 TS 26.10 -63.40 30
NA 06:00:00 TS 26.20 -63.80 30
NA 09:00:00 TS 26.29 -64.15 32
NA 12:00:00 TS 26.40 -64.50 35
NA 15:00:00 TS 26.54 -64.90 37
NA 18:00:00 TS 26.70 -65.30 40
NA 21:00:00 TS 26.85 -65.65 42
NA 1863-08-17 00:00:00 TS 27.00 -66.00 45
NA 03:00:00 TS 27.16 -66.40 47
NA 06:00:00 TS 27.30 -66.80 50
NA 09:00:00 TS 27.40 -67.15 52
NA 12:00:00 TS 27.50 -67.50 55
NA 15:00:00 TS 27.65 -67.90 57
NA 18:00:00 TS 27.80 -68.30 60
NA 21:00:00 TS 27.91 -68.65 60
NA 1863-08-18 00:00:00 TS 28.00 -69.00 60
NA 03:00:00 TS 28.10 -69.40 65
NA 06:00:00 TS 28.20 -69.80 70
NA 09:00:00 TS 28.28 -70.16 70
NA 12:00:00 TS 28.40 -70.50 70
NA 15:00:00 TS 28.58 -70.86 72
NA 18:00:00 TS 28.80 -71.20 75
NA 21:00:00 TS 29.00 -71.51 75
NA 1863-08-19 00:00:00 TS 29.20 -71.80 75
NA 03:00:00 TS 29.40 -72.10 75
NA 06:00:00 TS 29.60 -72.40 75
NA 09:00:00 TS 29.80 -72.69 75
NA 12:00:00 TS 30.00 -73.00 75
NA 15:00:00 TS 30.20 -73.35 75
NA 18:00:00 TS 30.40 -73.70 75
NA 21:00:00 TS 30.60 -74.01 77
NA 1863-08-20 00:00:00 TS 30.80 -74.30 80
NA 03:00:00 TS 31.01 -74.60 80
NA 06:00:00 TS 31.20 -74.90 80
NA 09:00:00 TS 31.34 -75.24 80
NA 12:00:00 TS 31.50 -75.50 80
NA 15:00:00 TS 31.70 -75.57 82
NA 18:00:00 TS 32.00 -75.50 85
NA 21:00:00 TS 32.46 -75.35 85
NA 1863-08-21 00:00:00 TS 33.00 -75.10 85
NA 03:00:00 TS 33.50 -74.77 85
NA 06:00:00 TS 34.00 -74.40 85
NA 09:00:00 TS 34.51 -74.08 85
NA 12:00:00 TS 35.00 -73.70 85
NA 15:00:00 TS 35.46 -73.17 85
NA 18:00:00 TS 35.90 -72.60 85
NA 21:00:00 TS 36.35 -72.09 85
NA 1863-08-22 00:00:00 TS 36.80 -71.60 85
NA 03:00:00 TS 37.26 -71.10 82
NA 06:00:00 TS 37.70 -70.60 80
NA 09:00:00 TS 38.04 -70.19 80
NA 12:00:00 TS 38.50 -69.60 80
NA 15:00:00 TS 39.29 -68.59 80
NA 18:00:00 TS 40.20 -67.40 80 975
NA 21:00:00 TS 41.04 -66.34 80
NA 1863-08-23 00:00:00 TS 41.80 -65.30 80
NA 03:00:00 TS 42.39 -64.25 77
NA 06:00:00 TS 42.90 -63.20 75
NA 09:00:00 TS 43.44 -62.45 72
NA 12:00:00 TS 44.00 -61.00 70
NA 15:00:00 TS 44.52 -57.86 67
NA 18:00:00 TS 45.00 -54.00 65
NA 21:00:00 TS 45.50 -50.42 62
NA 1863-08-24 00:00:00 ET 46.00 -47.00 60
NA 03:00:00 ET 46.51 -43.91 60
NA 06:00:00 ET 47.00 -41.00 60

Source Information

Agency Information
USA
TOKYO
CMA
HKO
NEWDELHI
REUNION
BOM
NADI
WELLINGTON
DS824
TD9636
TD9635
NEUMANN
MLC

All available IBTrACS Data

SEASON BASIN SUBBASIN ISO_TIME_________ NATURE LAT LON DIST2LAND LANDFALL IFLAG USA SSHS MLC LAT MLC LON MLC CLASS MLC WIND MLC PRES STORM SPEED STORM DIR
Year degrees north degrees east km km 1 degrees north degrees east kts mb kts degrees
1863 NA NA 1863-08-15 12:00:00 TS 25.50 -61.50 899 890 _____________O -1 25.50 -61.50 TD 30 8 293
1863 NA NA 15:00:00 TS 25.66 -61.91 900 888 _____________P -1 25.66 -61.91 TD 30 8 293
1863 NA NA 18:00:00 TS 25.80 -62.30 894 890 _____________O -1 25.80 -62.30 TD 30 7 290
1863 NA NA 21:00:00 TS 25.91 -62.65 889 886 _____________P -1 25.91 -62.65 TD 30 7 288
1863 NA NA 1863-08-16 00:00:00 TS 26.00 -63.00 890 884 _____________O -1 26.00 -63.00 TD 30 7 286
1863 NA NA 03:00:00 TS 26.10 -63.40 890 885 _____________P -1 26.10 -63.40 TD 30 7 286
1863 NA NA 06:00:00 TS 26.20 -63.80 891 887 _____________O -1 26.20 -63.80 TD 30 7 286
1863 NA NA 09:00:00 TS 26.29 -64.15 894 893 _____________P -1 26.29 -64.15 TD 32 7 288
1863 NA NA 12:00:00 TS 26.40 -64.50 901 900 _____________O -1 26.40 -64.50 TS 35 7 290
1863 NA NA 15:00:00 TS 26.54 -64.90 908 908 _____________P -1 26.54 -64.90 TS 37 8 293
1863 NA NA 18:00:00 TS 26.70 -65.30 922 918 _____________O -1 26.70 -65.30 TS 40 7 295
1863 NA NA 21:00:00 TS 26.85 -65.65 915 915 _____________P -1 26.85 -65.65 TS 42 7 296
1863 NA NA 1863-08-17 00:00:00 TS 27.00 -66.00 922 915 _____________O -1 27.00 -66.00 TS 45 7 295
1863 NA NA 03:00:00 TS 27.16 -66.40 925 917 _____________P -1 27.16 -66.40 TS 47 8 293
1863 NA NA 06:00:00 TS 27.30 -66.80 920 913 _____________O -1 27.30 -66.80 TS 50 7 290
1863 NA NA 09:00:00 TS 27.40 -67.15 908 897 _____________P -1 27.40 -67.15 TS 52 7 288
1863 NA NA 12:00:00 TS 27.50 -67.50 897 881 _____________O -1 27.50 -67.50 TS 55 7 291
1863 NA NA 15:00:00 TS 27.65 -67.90 890 877 _____________P -1 27.65 -67.90 TS 57 8 293
1863 NA NA 18:00:00 TS 27.80 -68.30 877 870 _____________O -1 27.80 -68.30 TS 60 7 291
1863 NA NA 21:00:00 TS 27.91 -68.65 865 860 _____________P -1 27.91 -68.65 TS 60 7 288
1863 NA NA 1863-08-18 00:00:00 TS 28.00 -69.00 860 851 _____________O -1 28.00 -69.00 TS 60 7 286
1863 NA NA 03:00:00 TS 28.10 -69.40 852 843 _____________P -1 28.10 -69.40 TS 65 7 286
1863 NA NA 06:00:00 TS 28.20 -69.80 846 838 _____________O -1 28.20 -69.80 HU 70 7 285
1863 NA NA 09:00:00 TS 28.28 -70.16 842 830 _____________P -1 28.28 -70.16 HU 70 6 288
1863 NA NA 12:00:00 TS 28.40 -70.50 830 808 _____________O -1 28.40 -70.50 HU 70 7 296
1863 NA NA 15:00:00 TS 28.58 -70.86 804 789 _____________P -1 28.58 -70.86 HU 72 7 303
1863 NA NA 18:00:00 TS 28.80 -71.20 789 776 _____________O -1 28.80 -71.20 HU 75 7 306
1863 NA NA 21:00:00 TS 29.00 -71.51 776 756 _____________P -1 29.00 -71.51 HU 75 7 307
1863 NA NA 1863-08-19 00:00:00 TS 29.20 -71.80 756 721 _____________O -1 29.20 -71.80 HU 75 7 308
1863 NA NA 03:00:00 TS 29.40 -72.10 721 686 _____________P -1 29.40 -72.10 HU 75 7 307
1863 NA NA 06:00:00 TS 29.60 -72.40 686 652 _____________O -1 29.60 -72.40 HU 75 7 308
1863 NA NA 09:00:00 TS 29.80 -72.69 652 618 _____________P -1 29.80 -72.69 HU 75 7 308
1863 NA NA 12:00:00 TS 30.00 -73.00 618 584 _____________O -1 30.00 -73.00 HU 75 7 305
1863 NA NA 15:00:00 TS 30.20 -73.35 579 546 _____________P -1 30.20 -73.35 HU 75 7 303
1863 NA NA 18:00:00 TS 30.40 -73.70 546 513 _____________O -1 30.40 -73.70 HU 75 7 305
1863 NA NA 21:00:00 TS 30.60 -74.01 513 480 _____________P -1 30.60 -74.01 HU 77 7 308
1863 NA NA 1863-08-20 00:00:00 TS 30.80 -74.30 480 449 _____________O -1 30.80 -74.30 HU 80 7 309
1863 NA NA 03:00:00 TS 31.01 -74.60 449 417 _____________P -1 31.01 -74.60 HU 80 7 308
1863 NA NA 06:00:00 TS 31.20 -74.90 417 390 _____________O -1 31.20 -74.90 HU 80 6 301
1863 NA NA 09:00:00 TS 31.34 -75.24 390 355 _____________P -1 31.34 -75.24 HU 80 6 300
1863 NA NA 12:00:00 TS 31.50 -75.50 355 332 _____________O -1 31.50 -75.50 HU 80 5 322
1863 NA NA 15:00:00 TS 31.70 -75.57 332 314 _____________P -1 31.70 -75.57 HU 82 5 2
1863 NA NA 18:00:00 TS 32.00 -75.50 314 275 _____________O -1 32.00 -75.50 HU 85 8 14
1863 NA NA 21:00:00 TS 32.46 -75.35 265 229 _____________P -1 32.46 -75.35 HU 85 11 19
1863 NA NA 1863-08-21 00:00:00 TS 33.00 -75.10 229 205 _____________O -1 33.00 -75.10 HU 85 11 25
1863 NA NA 03:00:00 TS 33.50 -74.77 205 198 _____________P -1 33.50 -74.77 HU 85 12 30
1863 NA NA 06:00:00 TS 34.00 -74.40 200 190 _____________O -1 34.00 -74.40 HU 85 12 30
1863 NA NA 09:00:00 TS 34.51 -74.08 190 182 _____________P -1 34.51 -74.08 HU 85 12 30
1863 NA NA 12:00:00 TS 35.00 -73.70 185 185 _____________O -1 35.00 -73.70 HU 85 12 38
1863 NA NA 15:00:00 TS 35.46 -73.17 210 210 _____________P -1 35.46 -73.17 HU 85 13 45
1863 NA NA 18:00:00 TS 35.90 -72.60 260 260 _____________O -1 35.90 -72.60 HU 85 13 44
1863 NA NA 21:00:00 TS 36.35 -72.09 309 309 _____________P -1 36.35 -72.09 HU 85 12 42
1863 NA NA 1863-08-22 00:00:00 TS 36.80 -71.60 350 350 _____________O -1 36.80 -71.60 HU 85 12 41
1863 NA NA 03:00:00 TS 37.26 -71.10 367 367 _____________P -1 37.26 -71.10 HU 82 12 41
1863 NA NA 06:00:00 TS 37.70 -70.60 378 368 _____________O -1 37.70 -70.60 HU 80 11 43
1863 NA NA 09:00:00 TS 38.04 -70.19 373 346 _____________P -1 38.04 -70.19 HU 80 11 45
1863 NA NA 12:00:00 TS 38.50 -69.60 346 299 _____________O -1 38.50 -69.60 HU 80 18 45
1863 NA NA 15:00:00 TS 39.29 -68.59 291 267 _____________P -1 39.29 -68.59 HU 80 24 45
1863 NA NA 18:00:00 TS 40.20 -67.40 274 274 _____________O -1 40.20 -67.40 HU 80 975 25 44
1863 NA NA 21:00:00 TS 41.04 -66.34 282 189 _____________P -1 41.04 -66.34 HU 80 23 45
1863 NA NA 1863-08-23 00:00:00 TS 41.80 -65.30 189 146 _____________O -1 41.80 -65.30 HU 80 21 49
1863 NA NA 03:00:00 TS 42.39 -64.25 146 146 _____________P -1 42.39 -64.25 HU 77 19 55
1863 NA NA 06:00:00 TS 42.90 -63.20 163 136 _____________O -1 42.90 -63.20 HU 75 17 51
1863 NA NA 09:00:00 TS 43.44 -62.45 141 126 _____________P -1 43.44 -62.45 HU 72 19 55
1863 NA NA 12:00:00 TS 44.00 -61.00 131 126 _____________O -1 44.00 -61.00 HU 70 35 72
1863 NA NA 15:00:00 TS 44.52 -57.86 224 183 _____________P -1 44.52 -57.86 HU 67 51 79
1863 NA NA 18:00:00 TS 45.00 -54.00 180 158 _____________O -1 45.00 -54.00 HU 65 53 80
1863 NA NA 21:00:00 TS 45.50 -50.42 246 246 _____________P -1 45.50 -50.42 HU 62 50 78
1863 NA NA 1863-08-24 00:00:00 ET 46.00 -47.00 456 456 _____________O -1 46.00 -47.00 EX 60 46 77
1863 NA NA 03:00:00 ET 46.51 -43.91 665 665 _____________P -1 46.51 -43.91 EX 60 42 76
1863 NA NA 06:00:00 ET 47.00 -41.00 872 _____________O -1 47.00 -41.00 EX 60 41 76